sensor_id;sensor_type;location;lat;lon;timestamp;temperature;humidity
59660;DHT22;45534;52.690;6.268;2023-02-28T00:00:52;3.10;99.90
59660;DHT22;45534;52.690;6.268;2023-02-28T00:03:17;3.10;99.90
59660;DHT22;45534;52.690;6.268;2023-02-28T00:05:43;3.10;99.90
59660;DHT22;45534;52.690;6.268;2023-02-28T00:08:09;3.10;99.90
59660;DHT22;45534;52.690;6.268;2023-02-28T00:10:34;3.20;99.90
59660;DHT22;45534;52.690;6.268;2023-02-28T00:13:05;3.20;99.90
59660;DHT22;45534;52.690;6.268;2023-02-28T00:15:31;3.20;99.90
59660;DHT22;45534;52.690;6.268;2023-02-28T00:17:57;3.20;99.90
59660;DHT22;45534;52.690;6.268;2023-02-28T00:20:24;3.20;99.90
59660;DHT22;45534;52.690;6.268;2023-02-28T00:22:52;3.20;99.90
59660;DHT22;45534;52.690;6.268;2023-02-28T00:25:21;3.20;99.90
59660;DHT22;45534;52.690;6.268;2023-02-28T00:27:47;3.20;99.90
59660;DHT22;45534;52.690;6.268;2023-02-28T00:30:17;3.20;99.90
59660;DHT22;45534;52.690;6.268;2023-02-28T00:32:43;3.30;99.90
59660;DHT22;45534;52.690;6.268;2023-02-28T00:35:10;3.30;99.90
59660;DHT22;45534;52.690;6.268;2023-02-28T00:37:36;3.30;99.90
59660;DHT22;45534;52.690;6.268;2023-02-28T00:40:03;3.30;99.90
59660;DHT22;45534;52.690;6.268;2023-02-28T00:42:34;3.30;99.90
59660;DHT22;45534;52.690;6.268;2023-02-28T00:45:00;3.30;99.90
59660;DHT22;45534;52.690;6.268;2023-02-28T00:47:26;3.30;99.90
59660;DHT22;45534;52.690;6.268;2023-02-28T00:49:52;3.30;99.90
59660;DHT22;45534;52.690;6.268;2023-02-28T00:52:18;3.30;99.90
59660;DHT22;45534;52.690;6.268;2023-02-28T00:54:43;3.30;99.90
59660;DHT22;45534;52.690;6.268;2023-02-28T00:57:09;3.30;99.90
59660;DHT22;45534;52.690;6.268;2023-02-28T00:59:35;3.30;99.90
59660;DHT22;45534;52.690;6.268;2023-02-28T01:02:01;3.40;99.90
59660;DHT22;45534;52.690;6.268;2023-02-28T01:04:26;3.30;99.90
59660;DHT22;45534;52.690;6.268;2023-02-28T01:06:52;3.40;99.90
59660;DHT22;45534;52.690;6.268;2023-02-28T01:09:18;3.40;99.90
59660;DHT22;45534;52.690;6.268;2023-02-28T01:11:44;3.40;99.90
59660;DHT22;45534;52.690;6.268;2023-02-28T01:14:13;3.40;99.90
59660;DHT22;45534;52.690;6.268;2023-02-28T01:16:39;3.40;99.90
59660;DHT22;45534;52.690;6.268;2023-02-28T01:19:05;3.50;99.90
59660;DHT22;45534;52.690;6.268;2023-02-28T01:21:31;3.50;99.90
59660;DHT22;45534;52.690;6.268;2023-02-28T01:23:57;3.50;99.90
59660;DHT22;45534;52.690;6.268;2023-02-28T01:26:23;3.50;99.90
59660;DHT22;45534;52.690;6.268;2023-02-28T01:28:51;3.50;99.90
59660;DHT22;45534;52.690;6.268;2023-02-28T01:31:17;3.50;99.90
59660;DHT22;45534;52.690;6.268;2023-02-28T01:33:44;3.50;99.90
59660;DHT22;45534;52.690;6.268;2023-02-28T01:36:12;3.50;99.90
59660;DHT22;45534;52.690;6.268;2023-02-28T01:38:39;3.40;99.90
59660;DHT22;45534;52.690;6.268;2023-02-28T01:41:05;3.50;99.90
59660;DHT22;45534;52.690;6.268;2023-02-28T01:43:52;3.50;99.90
59660;DHT22;45534;52.690;6.268;2023-02-28T01:46:18;3.50;99.90
59660;DHT22;45534;52.690;6.268;2023-02-28T01:48:54;3.50;99.90
59660;DHT22;45534;52.690;6.268;2023-02-28T01:51:26;3.50;99.90
59660;DHT22;45534;52.690;6.268;2023-02-28T01:54:02;3.50;99.90
59660;DHT22;45534;52.690;6.268;2023-02-28T01:56:32;3.50;99.90
59660;DHT22;45534;52.690;6.268;2023-02-28T01:58:59;3.50;99.90
59660;DHT22;45534;52.690;6.268;2023-02-28T02:01:27;3.50;99.90
59660;DHT22;45534;52.690;6.268;2023-02-28T02:03:55;3.50;99.90
59660;DHT22;45534;52.690;6.268;2023-02-28T02:06:25;3.50;99.90
59660;DHT22;45534;52.690;6.268;2023-02-28T02:08:53;3.50;99.90
59660;DHT22;45534;52.690;6.268;2023-02-28T02:11:20;3.50;99.90
59660;DHT22;45534;52.690;6.268;2023-02-28T02:30:31;3.50;99.90
59660;DHT22;45534;52.690;6.268;2023-02-28T02:39:13;3.50;99.90
59660;DHT22;45534;52.690;6.268;2023-02-28T02:41:53;3.40;99.90
59660;DHT22;45534;52.690;6.268;2023-02-28T02:44:36;3.40;99.90
59660;DHT22;45534;52.690;6.268;2023-02-28T02:47:14;3.40;99.90
59660;DHT22;45534;52.690;6.268;2023-02-28T02:49:45;3.40;99.90
59660;DHT22;45534;52.690;6.268;2023-02-28T02:52:14;3.40;99.90
59660;DHT22;45534;52.690;6.268;2023-02-28T02:54:44;3.40;99.90
59660;DHT22;45534;52.690;6.268;2023-02-28T02:57:15;3.40;99.90
59660;DHT22;45534;52.690;6.268;2023-02-28T02:59:43;3.40;99.90
59660;DHT22;45534;52.690;6.268;2023-02-28T03:02:12;3.40;99.90
59660;DHT22;45534;52.690;6.268;2023-02-28T03:04:44;3.40;99.90
59660;DHT22;45534;52.690;6.268;2023-02-28T03:07:11;3.30;99.90
59660;DHT22;45534;52.690;6.268;2023-02-28T03:09:36;3.30;99.90
59660;DHT22;45534;52.690;6.268;2023-02-28T03:12:04;3.30;99.90
59660;DHT22;45534;52.690;6.268;2023-02-28T03:14:43;3.30;99.90
59660;DHT22;45534;52.690;6.268;2023-02-28T03:17:24;3.30;99.90
59660;DHT22;45534;52.690;6.268;2023-02-28T03:19:58;3.30;99.90
59660;DHT22;45534;52.690;6.268;2023-02-28T03:31:19;3.10;99.90
59660;DHT22;45534;52.690;6.268;2023-02-28T03:34:08;3.10;99.90
59660;DHT22;45534;52.690;6.268;2023-02-28T03:36:45;3.10;99.90
59660;DHT22;45534;52.690;6.268;2023-02-28T03:39:16;3.00;99.90
59660;DHT22;45534;52.690;6.268;2023-02-28T03:41:47;3.00;99.90
59660;DHT22;45534;52.690;6.268;2023-02-28T03:44:24;3.00;99.90
59660;DHT22;45534;52.690;6.268;2023-02-28T03:47:24;3.00;99.90
59660;DHT22;45534;52.690;6.268;2023-02-28T03:50:05;2.90;99.90
59660;DHT22;45534;52.690;6.268;2023-02-28T03:52:36;2.90;99.90
59660;DHT22;45534;52.690;6.268;2023-02-28T03:55:07;2.90;99.90
59660;DHT22;45534;52.690;6.268;2023-02-28T04:00:24;2.90;99.90
59660;DHT22;45534;52.690;6.268;2023-02-28T04:02:53;2.90;99.90
59660;DHT22;45534;52.690;6.268;2023-02-28T04:05:20;2.90;99.90
59660;DHT22;45534;52.690;6.268;2023-02-28T04:07:46;2.90;99.90
59660;DHT22;45534;52.690;6.268;2023-02-28T04:10:13;2.90;99.90
59660;DHT22;45534;52.690;6.268;2023-02-28T04:12:38;2.90;99.90
59660;DHT22;45534;52.690;6.268;2023-02-28T04:15:04;2.90;99.90
59660;DHT22;45534;52.690;6.268;2023-02-28T04:17:31;2.90;99.90
59660;DHT22;45534;52.690;6.268;2023-02-28T04:19:56;2.90;99.90
59660;DHT22;45534;52.690;6.268;2023-02-28T04:22:23;2.90;99.90
59660;DHT22;45534;52.690;6.268;2023-02-28T04:24:51;2.80;99.90
59660;DHT22;45534;52.690;6.268;2023-02-28T04:27:19;2.90;99.90
59660;DHT22;45534;52.690;6.268;2023-02-28T04:29:45;2.90;99.90
59660;DHT22;45534;52.690;6.268;2023-02-28T04:32:11;2.90;99.90
59660;DHT22;45534;52.690;6.268;2023-02-28T04:34:37;2.80;99.90
59660;DHT22;45534;52.690;6.268;2023-02-28T04:37:03;2.80;99.90
59660;DHT22;45534;52.690;6.268;2023-02-28T04:39:28;2.80;99.90
59660;DHT22;45534;52.690;6.268;2023-02-28T04:41:55;2.80;99.90
59660;DHT22;45534;52.690;6.268;2023-02-28T04:44:21;2.80;99.90
59660;DHT22;45534;52.690;6.268;2023-02-28T04:46:48;2.70;99.90
59660;DHT22;45534;52.690;6.268;2023-02-28T04:49:14;2.70;99.90
59660;DHT22;45534;52.690;6.268;2023-02-28T04:51:41;2.70;99.90
59660;DHT22;45534;52.690;6.268;2023-02-28T04:54:07;2.70;99.90
59660;DHT22;45534;52.690;6.268;2023-02-28T04:56:33;2.70;99.90
59660;DHT22;45534;52.690;6.268;2023-02-28T04:58:58;2.70;99.90
59660;DHT22;45534;52.690;6.268;2023-02-28T05:01:29;2.60;99.90
59660;DHT22;45534;52.690;6.268;2023-02-28T05:03:57;2.70;99.90
59660;DHT22;45534;52.690;6.268;2023-02-28T05:06:26;2.70;99.90
59660;DHT22;45534;52.690;6.268;2023-02-28T05:08:52;2.60;99.90
59660;DHT22;45534;52.690;6.268;2023-02-28T05:11:24;2.60;99.90
59660;DHT22;45534;52.690;6.268;2023-02-28T05:13:51;2.60;99.90
59660;DHT22;45534;52.690;6.268;2023-02-28T05:16:17;2.60;99.90
59660;DHT22;45534;52.690;6.268;2023-02-28T05:18:43;2.60;99.90
59660;DHT22;45534;52.690;6.268;2023-02-28T05:21:24;2.60;99.90
59660;DHT22;45534;52.690;6.268;2023-02-28T05:23:50;2.60;99.90
59660;DHT22;45534;52.690;6.268;2023-02-28T05:26:15;2.60;99.90
59660;DHT22;45534;52.690;6.268;2023-02-28T05:28:41;2.60;99.90
59660;DHT22;45534;52.690;6.268;2023-02-28T05:31:10;2.60;99.90
59660;DHT22;45534;52.690;6.268;2023-02-28T05:33:36;2.50;99.90
59660;DHT22;45534;52.690;6.268;2023-02-28T05:36:02;2.50;99.90
59660;DHT22;45534;52.690;6.268;2023-02-28T05:38:27;2.50;99.90
59660;DHT22;45534;52.690;6.268;2023-02-28T05:40:53;2.50;99.90
59660;DHT22;45534;52.690;6.268;2023-02-28T05:43:19;2.50;99.90
59660;DHT22;45534;52.690;6.268;2023-02-28T05:45:44;2.50;99.90
59660;DHT22;45534;52.690;6.268;2023-02-28T05:48:10;2.50;99.90
59660;DHT22;45534;52.690;6.268;2023-02-28T05:50:36;2.50;99.90
59660;DHT22;45534;52.690;6.268;2023-02-28T05:53:02;2.40;99.90
59660;DHT22;45534;52.690;6.268;2023-02-28T05:55:28;2.50;99.90
59660;DHT22;45534;52.690;6.268;2023-02-28T05:57:54;2.40;99.90
59660;DHT22;45534;52.690;6.268;2023-02-28T06:00:21;2.40;99.90
59660;DHT22;45534;52.690;6.268;2023-02-28T06:02:48;2.40;99.90
59660;DHT22;45534;52.690;6.268;2023-02-28T06:05:16;2.40;99.90
59660;DHT22;45534;52.690;6.268;2023-02-28T06:07:43;2.40;99.90
59660;DHT22;45534;52.690;6.268;2023-02-28T06:10:10;2.40;99.90
59660;DHT22;45534;52.690;6.268;2023-02-28T06:12:37;2.40;99.90
59660;DHT22;45534;52.690;6.268;2023-02-28T06:15:03;2.30;99.90
59660;DHT22;45534;52.690;6.268;2023-02-28T06:17:29;2.30;99.90
59660;DHT22;45534;52.690;6.268;2023-02-28T06:19:54;2.40;99.90
59660;DHT22;45534;52.690;6.268;2023-02-28T06:22:20;2.40;99.90
59660;DHT22;45534;52.690;6.268;2023-02-28T06:24:46;2.30;99.90
59660;DHT22;45534;52.690;6.268;2023-02-28T06:27:12;2.40;99.90
59660;DHT22;45534;52.690;6.268;2023-02-28T06:29:37;2.30;99.90
59660;DHT22;45534;52.690;6.268;2023-02-28T06:32:05;2.40;99.90
59660;DHT22;45534;52.690;6.268;2023-02-28T06:34:31;2.40;99.90
59660;DHT22;45534;52.690;6.268;2023-02-28T06:36:59;2.40;99.90
59660;DHT22;45534;52.690;6.268;2023-02-28T06:39:28;2.40;99.90
59660;DHT22;45534;52.690;6.268;2023-02-28T06:41:54;2.30;99.90
59660;DHT22;45534;52.690;6.268;2023-02-28T06:44:20;2.30;99.90
59660;DHT22;45534;52.690;6.268;2023-02-28T06:46:46;2.30;99.90
59660;DHT22;45534;52.690;6.268;2023-02-28T06:49:12;2.30;99.90
59660;DHT22;45534;52.690;6.268;2023-02-28T06:51:40;2.30;99.90
59660;DHT22;45534;52.690;6.268;2023-02-28T06:54:07;2.40;99.90
59660;DHT22;45534;52.690;6.268;2023-02-28T06:56:36;2.40;99.90
59660;DHT22;45534;52.690;6.268;2023-02-28T06:59:02;2.40;99.90
59660;DHT22;45534;52.690;6.268;2023-02-28T07:01:29;2.30;99.90
59660;DHT22;45534;52.690;6.268;2023-02-28T07:03:57;2.30;99.90
59660;DHT22;45534;52.690;6.268;2023-02-28T07:06:23;2.40;99.90
59660;DHT22;45534;52.690;6.268;2023-02-28T07:08:50;2.40;99.90
59660;DHT22;45534;52.690;6.268;2023-02-28T07:11:16;2.40;99.90
59660;DHT22;45534;52.690;6.268;2023-02-28T07:13:42;2.40;99.90
59660;DHT22;45534;52.690;6.268;2023-02-28T07:16:10;2.40;99.90
59660;DHT22;45534;52.690;6.268;2023-02-28T07:18:37;2.40;99.90
59660;DHT22;45534;52.690;6.268;2023-02-28T07:21:07;2.40;99.90
59660;DHT22;45534;52.690;6.268;2023-02-28T07:23:34;2.40;99.90
59660;DHT22;45534;52.690;6.268;2023-02-28T07:26:00;2.40;99.90
59660;DHT22;45534;52.690;6.268;2023-02-28T07:28:28;2.40;99.90
59660;DHT22;45534;52.690;6.268;2023-02-28T07:30:54;2.40;99.90
59660;DHT22;45534;52.690;6.268;2023-02-28T07:33:20;2.40;99.90
59660;DHT22;45534;52.690;6.268;2023-02-28T07:35:45;2.30;99.90
59660;DHT22;45534;52.690;6.268;2023-02-28T07:38:11;2.30;99.90
59660;DHT22;45534;52.690;6.268;2023-02-28T07:40:39;2.30;99.90
59660;DHT22;45534;52.690;6.268;2023-02-28T07:43:07;2.30;99.90
59660;DHT22;45534;52.690;6.268;2023-02-28T07:45:33;2.30;99.90
59660;DHT22;45534;52.690;6.268;2023-02-28T07:48:00;2.30;99.90
59660;DHT22;45534;52.690;6.268;2023-02-28T07:50:25;2.40;99.90
59660;DHT22;45534;52.690;6.268;2023-02-28T07:52:54;2.40;99.90
59660;DHT22;45534;52.690;6.268;2023-02-28T07:55:20;2.40;99.90
59660;DHT22;45534;52.690;6.268;2023-02-28T07:57:46;2.50;99.90
59660;DHT22;45534;52.690;6.268;2023-02-28T08:00:12;2.50;99.90
59660;DHT22;45534;52.690;6.268;2023-02-28T08:02:41;2.50;99.90
59660;DHT22;45534;52.690;6.268;2023-02-28T08:05:08;2.50;99.90
59660;DHT22;45534;52.690;6.268;2023-02-28T08:07:34;2.50;99.90
59660;DHT22;45534;52.690;6.268;2023-02-28T08:09:59;2.50;99.90
59660;DHT22;45534;52.690;6.268;2023-02-28T08:12:25;2.50;99.90
59660;DHT22;45534;52.690;6.268;2023-02-28T08:14:51;2.60;99.90
59660;DHT22;45534;52.690;6.268;2023-02-28T08:17:17;2.60;99.90
59660;DHT22;45534;52.690;6.268;2023-02-28T08:19:45;2.70;99.90
59660;DHT22;45534;52.690;6.268;2023-02-28T08:22:11;2.80;99.90
59660;DHT22;45534;52.690;6.268;2023-02-28T08:24:37;2.90;99.90
59660;DHT22;45534;52.690;6.268;2023-02-28T08:27:03;3.00;99.90
59660;DHT22;45534;52.690;6.268;2023-02-28T08:29:28;3.20;99.90
59660;DHT22;45534;52.690;6.268;2023-02-28T08:31:55;3.30;99.90
59660;DHT22;45534;52.690;6.268;2023-02-28T08:34:21;3.40;99.90
59660;DHT22;45534;52.690;6.268;2023-02-28T08:36:47;3.50;99.90
59660;DHT22;45534;52.690;6.268;2023-02-28T08:39:12;3.50;99.90
59660;DHT22;45534;52.690;6.268;2023-02-28T08:41:38;3.60;99.90
59660;DHT22;45534;52.690;6.268;2023-02-28T08:44:04;3.70;99.90
59660;DHT22;45534;52.690;6.268;2023-02-28T08:46:30;3.70;99.90
59660;DHT22;45534;52.690;6.268;2023-02-28T08:48:56;3.70;99.90
59660;DHT22;45534;52.690;6.268;2023-02-28T08:51:26;3.80;99.90
59660;DHT22;45534;52.690;6.268;2023-02-28T08:53:57;3.80;99.90
59660;DHT22;45534;52.690;6.268;2023-02-28T08:56:23;3.80;99.90
59660;DHT22;45534;52.690;6.268;2023-02-28T08:58:49;3.90;99.90
59660;DHT22;45534;52.690;6.268;2023-02-28T09:01:21;3.90;99.90
59660;DHT22;45534;52.690;6.268;2023-02-28T09:03:48;4.00;99.90
59660;DHT22;45534;52.690;6.268;2023-02-28T09:06:15;4.10;99.90
59660;DHT22;45534;52.690;6.268;2023-02-28T09:08:42;4.10;99.90
59660;DHT22;45534;52.690;6.268;2023-02-28T09:11:08;4.20;99.90
59660;DHT22;45534;52.690;6.268;2023-02-28T09:13:34;4.30;99.90
59660;DHT22;45534;52.690;6.268;2023-02-28T09:16:02;4.40;99.90
59660;DHT22;45534;52.690;6.268;2023-02-28T09:18:28;4.50;99.90
59660;DHT22;45534;52.690;6.268;2023-02-28T09:20:54;4.50;99.90
59660;DHT22;45534;52.690;6.268;2023-02-28T09:23:20;4.60;99.90
59660;DHT22;45534;52.690;6.268;2023-02-28T09:25:51;4.70;99.90
59660;DHT22;45534;52.690;6.268;2023-02-28T09:28:17;4.70;99.90
59660;DHT22;45534;52.690;6.268;2023-02-28T09:30:48;4.80;99.90
59660;DHT22;45534;52.690;6.268;2023-02-28T09:33:14;4.90;99.90
59660;DHT22;45534;52.690;6.268;2023-02-28T09:35:41;4.90;99.90
59660;DHT22;45534;52.690;6.268;2023-02-28T09:38:09;4.90;99.90
59660;DHT22;45534;52.690;6.268;2023-02-28T09:40:49;4.90;99.90
59660;DHT22;45534;52.690;6.268;2023-02-28T09:43:17;5.00;99.90
59660;DHT22;45534;52.690;6.268;2023-02-28T09:45:50;5.00;99.90
59660;DHT22;45534;52.690;6.268;2023-02-28T09:48:25;5.10;99.90
59660;DHT22;45534;52.690;6.268;2023-02-28T09:50:57;5.20;99.90
59660;DHT22;45534;52.690;6.268;2023-02-28T09:53:36;5.20;99.90
59660;DHT22;45534;52.690;6.268;2023-02-28T09:56:11;5.30;99.90
59660;DHT22;45534;52.690;6.268;2023-02-28T09:58:48;5.30;99.90
59660;DHT22;45534;52.690;6.268;2023-02-28T10:01:50;5.50;99.90
59660;DHT22;45534;52.690;6.268;2023-02-28T10:05:20;5.60;99.90
59660;DHT22;45534;52.690;6.268;2023-02-28T10:10:28;6.00;99.90
59660;DHT22;45534;52.690;6.268;2023-02-28T10:12:57;6.20;99.90
59660;DHT22;45534;52.690;6.268;2023-02-28T10:15:25;6.20;99.90
59660;DHT22;45534;52.690;6.268;2023-02-28T10:18:05;6.30;99.90
59660;DHT22;45534;52.690;6.268;2023-02-28T10:20:38;6.30;99.90
59660;DHT22;45534;52.690;6.268;2023-02-28T10:23:24;6.30;99.90
59660;DHT22;45534;52.690;6.268;2023-02-28T10:26:20;6.40;99.90
59660;DHT22;45534;52.690;6.268;2023-02-28T10:28:46;6.40;99.90
59660;DHT22;45534;52.690;6.268;2023-02-28T10:31:17;6.40;99.90
59660;DHT22;45534;52.690;6.268;2023-02-28T10:33:43;6.30;99.90
59660;DHT22;45534;52.690;6.268;2023-02-28T10:36:14;6.20;99.90
59660;DHT22;45534;52.690;6.268;2023-02-28T10:38:41;6.20;99.90
59660;DHT22;45534;52.690;6.268;2023-02-28T10:41:10;6.30;99.90
59660;DHT22;45534;52.690;6.268;2023-02-28T10:43:38;6.30;99.90
59660;DHT22;45534;52.690;6.268;2023-02-28T10:48:44;6.40;99.90
59660;DHT22;45534;52.690;6.268;2023-02-28T10:51:14;6.40;99.90
59660;DHT22;45534;52.690;6.268;2023-02-28T10:53:52;6.40;99.90
59660;DHT22;45534;52.690;6.268;2023-02-28T10:56:20;6.50;99.90
59660;DHT22;45534;52.690;6.268;2023-02-28T11:01:46;6.70;99.90
59660;DHT22;45534;52.690;6.268;2023-02-28T11:07:03;7.20;99.90
59660;DHT22;45534;52.690;6.268;2023-02-28T11:09:38;7.50;99.90
59660;DHT22;45534;52.690;6.268;2023-02-28T11:12:28;7.80;99.90
59660;DHT22;45534;52.690;6.268;2023-02-28T11:15:41;8.00;99.90
59660;DHT22;45534;52.690;6.268;2023-02-28T11:17:42;8.20;99.90
59660;DHT22;45534;52.690;6.268;2023-02-28T11:20:20;8.40;99.90
59660;DHT22;45534;52.690;6.268;2023-02-28T11:22:47;8.60;99.90
59660;DHT22;45534;52.690;6.268;2023-02-28T11:25:20;8.70;99.90
59660;DHT22;45534;52.690;6.268;2023-02-28T11:27:52;8.80;99.90
59660;DHT22;45534;52.690;6.268;2023-02-28T11:30:36;8.70;94.80
59660;DHT22;45534;52.690;6.268;2023-02-28T11:35:48;8.80;99.90
59660;DHT22;45534;52.690;6.268;2023-02-28T11:38:14;9.10;99.90
59660;DHT22;45534;52.690;6.268;2023-02-28T11:40:46;9.20;99.90
59660;DHT22;45534;52.690;6.268;2023-02-28T11:51:35;9.90;99.90
59660;DHT22;45534;52.690;6.268;2023-02-28T11:56:59;10.10;99.90
59660;DHT22;45534;52.690;6.268;2023-02-28T12:07:15;10.20;99.90
59660;DHT22;45534;52.690;6.268;2023-02-28T12:10:04;10.70;99.90
59660;DHT22;45534;52.690;6.268;2023-02-28T12:18:10;10.80;99.90
59660;DHT22;45534;52.690;6.268;2023-02-28T12:26:14;11.00;99.90
59660;DHT22;45534;52.690;6.268;2023-02-28T12:28:46;10.90;99.90
59660;DHT22;45534;52.690;6.268;2023-02-28T12:31:24;10.80;99.90
59660;DHT22;45534;52.690;6.268;2023-02-28T12:33:59;11.20;95.90
59660;DHT22;45534;52.690;6.268;2023-02-28T12:36:26;11.60;99.90
59660;DHT22;45534;52.690;6.268;2023-02-28T12:39:01;11.80;99.90
59660;DHT22;45534;52.690;6.268;2023-02-28T12:41:47;12.00;99.90
59660;DHT22;45534;52.690;6.268;2023-02-28T12:44:37;12.20;99.30
59660;DHT22;45534;52.690;6.268;2023-02-28T12:47:15;12.50;99.90
59660;DHT22;45534;52.690;6.268;2023-02-28T12:50:16;12.70;99.70
59660;DHT22;45534;52.690;6.268;2023-02-28T12:52:51;13.00;99.80
59660;DHT22;45534;52.690;6.268;2023-02-28T13:00:42;13.60;94.60
59660;DHT22;45534;52.690;6.268;2023-02-28T13:06:16;13.20;80.00
59660;DHT22;45534;52.690;6.268;2023-02-28T13:11:55;13.60;83.10
59660;DHT22;45534;52.690;6.268;2023-02-28T13:14:43;13.90;87.90
59660;DHT22;45534;52.690;6.268;2023-02-28T13:20:00;14.10;73.90
59660;DHT22;45534;52.690;6.268;2023-02-28T13:25:01;14.30;76.30
59660;DHT22;45534;52.690;6.268;2023-02-28T13:27:45;14.20;77.00
59660;DHT22;45534;52.690;6.268;2023-02-28T13:33:23;14.60;72.10
59660;DHT22;45534;52.690;6.268;2023-02-28T13:44:21;15.40;63.50
59660;DHT22;45534;52.690;6.268;2023-02-28T13:58:09;15.30;56.60
59660;DHT22;45534;52.690;6.268;2023-02-28T14:08:55;16.20;54.60
59660;DHT22;45534;52.690;6.268;2023-02-28T14:11:36;16.40;54.10
59660;DHT22;45534;52.690;6.268;2023-02-28T14:14:04;16.50;53.30
59660;DHT22;45534;52.690;6.268;2023-02-28T14:16:45;16.50;52.90
59660;DHT22;45534;52.690;6.268;2023-02-28T14:32:37;16.50;52.10
59660;DHT22;45534;52.690;6.268;2023-02-28T14:35:27;16.70;50.50
59660;DHT22;45534;52.690;6.268;2023-02-28T14:37:55;16.90;52.00
59660;DHT22;45534;52.690;6.268;2023-02-28T14:40:29;17.10;51.10
59660;DHT22;45534;52.690;6.268;2023-02-28T14:42:59;17.20;50.40
59660;DHT22;45534;52.690;6.268;2023-02-28T14:45:31;17.30;50.20
59660;DHT22;45534;52.690;6.268;2023-02-28T14:47:58;17.50;49.80
59660;DHT22;45534;52.690;6.268;2023-02-28T14:50:35;17.60;48.80
59660;DHT22;45534;52.690;6.268;2023-02-28T14:53:02;17.80;48.50
59660;DHT22;45534;52.690;6.268;2023-02-28T14:55:33;17.90;49.00
59660;DHT22;45534;52.690;6.268;2023-02-28T15:00:50;18.10;48.20
59660;DHT22;45534;52.690;6.268;2023-02-28T15:03:32;17.90;46.00
59660;DHT22;45534;52.690;6.268;2023-02-28T15:06:01;16.90;46.00
59660;DHT22;45534;52.690;6.268;2023-02-28T15:08:28;16.30;47.00
59660;DHT22;45534;52.690;6.268;2023-02-28T15:10:55;16.20;47.80
59660;DHT22;45534;52.690;6.268;2023-02-28T15:13:23;16.40;47.70
59660;DHT22;45534;52.690;6.268;2023-02-28T15:15:54;16.60;48.00
59660;DHT22;45534;52.690;6.268;2023-02-28T15:20:58;16.80;44.90
59660;DHT22;45534;52.690;6.268;2023-02-28T15:23:28;15.60;44.70
59660;DHT22;45534;52.690;6.268;2023-02-28T15:25:55;14.90;45.80
59660;DHT22;45534;52.690;6.268;2023-02-28T15:28:22;14.90;47.80
59660;DHT22;45534;52.690;6.268;2023-02-28T15:31:01;15.20;47.60
59660;DHT22;45534;52.690;6.268;2023-02-28T15:33:32;15.50;48.30
59660;DHT22;45534;52.690;6.268;2023-02-28T15:36:10;15.70;47.20
59660;DHT22;45534;52.690;6.268;2023-02-28T15:38:36;15.80;47.40
59660;DHT22;45534;52.690;6.268;2023-02-28T15:41:02;15.60;47.50
59660;DHT22;45534;52.690;6.268;2023-02-28T15:43:38;14.70;49.50
59660;DHT22;45534;52.690;6.268;2023-02-28T15:46:12;13.80;51.30
59660;DHT22;45534;52.690;6.268;2023-02-28T15:48:51;13.00;52.50
59660;DHT22;45534;52.690;6.268;2023-02-28T15:51:29;13.10;53.60
59660;DHT22;45534;52.690;6.268;2023-02-28T15:54:06;13.40;54.00
59660;DHT22;45534;52.690;6.268;2023-02-28T15:56:43;13.70;53.80
59660;DHT22;45534;52.690;6.268;2023-02-28T15:59:18;13.90;53.90
59660;DHT22;45534;52.690;6.268;2023-02-28T16:01:45;13.40;53.80
59660;DHT22;45534;52.690;6.268;2023-02-28T16:04:16;12.60;54.50
59660;DHT22;45534;52.690;6.268;2023-02-28T16:06:46;11.60;55.60
59660;DHT22;45534;52.690;6.268;2023-02-28T16:09:17;10.80;56.70
59660;DHT22;45534;52.690;6.268;2023-02-28T16:11:48;10.10;57.40
59660;DHT22;45534;52.690;6.268;2023-02-28T16:14:23;9.60;58.20
59660;DHT22;45534;52.690;6.268;2023-02-28T16:16:52;9.10;58.50
59660;DHT22;45534;52.690;6.268;2023-02-28T16:19:19;8.80;59.00
59660;DHT22;45534;52.690;6.268;2023-02-28T16:21:45;8.50;60.20
59660;DHT22;45534;52.690;6.268;2023-02-28T16:24:11;8.20;60.00
59660;DHT22;45534;52.690;6.268;2023-02-28T16:26:44;8.00;60.60
59660;DHT22;45534;52.690;6.268;2023-02-28T16:29:16;7.80;61.60
59660;DHT22;45534;52.690;6.268;2023-02-28T16:31:44;7.60;61.90
59660;DHT22;45534;52.690;6.268;2023-02-28T16:34:09;7.40;62.70
59660;DHT22;45534;52.690;6.268;2023-02-28T16:36:35;7.30;63.20
59660;DHT22;45534;52.690;6.268;2023-02-28T16:39:01;7.10;64.40
59660;DHT22;45534;52.690;6.268;2023-02-28T16:41:28;6.90;65.30
59660;DHT22;45534;52.690;6.268;2023-02-28T16:43:55;6.80;65.30
59660;DHT22;45534;52.690;6.268;2023-02-28T16:46:31;6.70;67.00
59660;DHT22;45534;52.690;6.268;2023-02-28T16:48:58;6.60;68.00
59660;DHT22;45534;52.690;6.268;2023-02-28T16:51:24;6.40;69.90
59660;DHT22;45534;52.690;6.268;2023-02-28T16:53:50;6.30;72.20
59660;DHT22;45534;52.690;6.268;2023-02-28T16:56:20;6.20;75.60
59660;DHT22;45534;52.690;6.268;2023-02-28T16:58:48;6.00;78.80
59660;DHT22;45534;52.690;6.268;2023-02-28T17:01:15;5.90;85.10
59660;DHT22;45534;52.690;6.268;2023-02-28T17:03:41;5.80;91.20
59660;DHT22;45534;52.690;6.268;2023-02-28T17:06:25;5.70;92.10
59660;DHT22;45534;52.690;6.268;2023-02-28T17:08:52;5.60;91.30
59660;DHT22;45534;52.690;6.268;2023-02-28T17:11:18;5.60;92.30
59660;DHT22;45534;52.690;6.268;2023-02-28T17:13:44;5.50;92.70
59660;DHT22;45534;52.690;6.268;2023-02-28T17:16:31;5.40;94.30
59660;DHT22;45534;52.690;6.268;2023-02-28T17:19:00;5.30;98.70
59660;DHT22;45534;52.690;6.268;2023-02-28T17:21:26;5.10;99.90
59660;DHT22;45534;52.690;6.268;2023-02-28T17:23:51;5.00;99.90
59660;DHT22;45534;52.690;6.268;2023-02-28T17:26:19;4.90;99.90
59660;DHT22;45534;52.690;6.268;2023-02-28T17:28:46;4.70;99.90
59660;DHT22;45534;52.690;6.268;2023-02-28T17:31:12;4.60;99.90
59660;DHT22;45534;52.690;6.268;2023-02-28T17:33:38;4.60;99.90
59660;DHT22;45534;52.690;6.268;2023-02-28T17:36:04;4.50;99.90
59660;DHT22;45534;52.690;6.268;2023-02-28T17:38:30;4.50;99.90
59660;DHT22;45534;52.690;6.268;2023-02-28T17:40:56;4.50;99.90
59660;DHT22;45534;52.690;6.268;2023-02-28T17:43:25;4.40;99.90
59660;DHT22;45534;52.690;6.268;2023-02-28T17:45:51;4.40;99.90
59660;DHT22;45534;52.690;6.268;2023-02-28T17:48:17;4.40;99.90
59660;DHT22;45534;52.690;6.268;2023-02-28T17:50:43;4.40;99.90
59660;DHT22;45534;52.690;6.268;2023-02-28T17:53:08;4.30;99.90
59660;DHT22;45534;52.690;6.268;2023-02-28T17:55:35;4.20;99.90
59660;DHT22;45534;52.690;6.268;2023-02-28T17:58:01;4.20;99.90
59660;DHT22;45534;52.690;6.268;2023-02-28T18:00:28;4.20;99.90
59660;DHT22;45534;52.690;6.268;2023-02-28T18:02:54;4.20;99.90
59660;DHT22;45534;52.690;6.268;2023-02-28T18:05:20;4.10;99.90
59660;DHT22;45534;52.690;6.268;2023-02-28T18:07:49;4.00;99.90
59660;DHT22;45534;52.690;6.268;2023-02-28T18:10:16;3.90;99.90
59660;DHT22;45534;52.690;6.268;2023-02-28T18:12:46;3.80;99.90
59660;DHT22;45534;52.690;6.268;2023-02-28T18:15:13;3.70;99.90
59660;DHT22;45534;52.690;6.268;2023-02-28T18:17:40;3.70;99.90
59660;DHT22;45534;52.690;6.268;2023-02-28T18:20:06;3.60;99.90
59660;DHT22;45534;52.690;6.268;2023-02-28T18:22:31;3.50;99.90